sensor_id;sensor_type;location;lat;lon;timestamp;temperature;humidity
22112;DHT22;11222;50.872;4.312;2022-09-29T00:00:24;9.60;99.90
22112;DHT22;11222;50.872;4.312;2022-09-29T00:02:51;9.60;99.90
22112;DHT22;11222;50.872;4.312;2022-09-29T00:05:17;9.60;99.90
22112;DHT22;11222;50.872;4.312;2022-09-29T00:07:43;9.50;99.90
22112;DHT22;11222;50.872;4.312;2022-09-29T00:10:09;9.50;99.90
22112;DHT22;11222;50.872;4.312;2022-09-29T00:12:35;9.50;99.90
22112;DHT22;11222;50.872;4.312;2022-09-29T00:15:00;9.40;99.90
22112;DHT22;11222;50.872;4.312;2022-09-29T00:17:26;9.40;99.90
22112;DHT22;11222;50.872;4.312;2022-09-29T00:19:52;9.50;99.90
22112;DHT22;11222;50.872;4.312;2022-09-29T00:22:17;9.40;99.90
22112;DHT22;11222;50.872;4.312;2022-09-29T00:24:43;9.40;99.90
22112;DHT22;11222;50.872;4.312;2022-09-29T00:27:08;9.40;99.90
22112;DHT22;11222;50.872;4.312;2022-09-29T00:29:34;9.40;99.90
22112;DHT22;11222;50.872;4.312;2022-09-29T00:32:00;9.40;99.90
22112;DHT22;11222;50.872;4.312;2022-09-29T00:34:26;9.40;99.90
22112;DHT22;11222;50.872;4.312;2022-09-29T00:36:51;9.40;99.90
22112;DHT22;11222;50.872;4.312;2022-09-29T00:39:17;9.40;99.90
22112;DHT22;11222;50.872;4.312;2022-09-29T00:41:42;9.30;99.90
22112;DHT22;11222;50.872;4.312;2022-09-29T00:46:58;9.20;99.90
22112;DHT22;11222;50.872;4.312;2022-09-29T00:49:39;9.20;99.90
22112;DHT22;11222;50.872;4.312;2022-09-29T00:54:57;9.10;99.90
22112;DHT22;11222;50.872;4.312;2022-09-29T00:57:28;9.10;99.90
22112;DHT22;11222;50.872;4.312;2022-09-29T01:02:21;9.00;99.90
22112;DHT22;11222;50.872;4.312;2022-09-29T01:04:49;9.00;99.90
22112;DHT22;11222;50.872;4.312;2022-09-29T01:07:17;9.10;99.90
22112;DHT22;11222;50.872;4.312;2022-09-29T01:09:44;9.20;99.90
22112;DHT22;11222;50.872;4.312;2022-09-29T01:12:10;9.20;99.90
22112;DHT22;11222;50.872;4.312;2022-09-29T01:14:37;9.30;99.90
22112;DHT22;11222;50.872;4.312;2022-09-29T01:17:04;9.40;99.90
22112;DHT22;11222;50.872;4.312;2022-09-29T01:24:52;9.60;99.90
22112;DHT22;11222;50.872;4.312;2022-09-29T01:27:24;9.60;99.90
22112;DHT22;11222;50.872;4.312;2022-09-29T01:33:09;9.70;99.90
22112;DHT22;11222;50.872;4.312;2022-09-29T01:35:59;9.70;99.90
22112;DHT22;11222;50.872;4.312;2022-09-29T01:46:40;9.30;99.90
22112;DHT22;11222;50.872;4.312;2022-09-29T01:49:08;9.30;99.90
22112;DHT22;11222;50.872;4.312;2022-09-29T01:51:43;9.30;99.90
22112;DHT22;11222;50.872;4.312;2022-09-29T01:54:16;9.20;99.90
22112;DHT22;11222;50.872;4.312;2022-09-29T01:56:48;9.20;99.90
22112;DHT22;11222;50.872;4.312;2022-09-29T02:01:55;9.20;99.90
22112;DHT22;11222;50.872;4.312;2022-09-29T02:04:30;9.20;99.90
22112;DHT22;11222;50.872;4.312;2022-09-29T02:07:07;9.20;99.90
22112;DHT22;11222;50.872;4.312;2022-09-29T02:09:38;9.20;99.90
22112;DHT22;11222;50.872;4.312;2022-09-29T02:12:07;9.10;99.90
22112;DHT22;11222;50.872;4.312;2022-09-29T02:14:42;9.10;99.90
22112;DHT22;11222;50.872;4.312;2022-09-29T02:17:21;9.10;99.90
22112;DHT22;11222;50.872;4.312;2022-09-29T02:19:50;9.00;99.90
22112;DHT22;11222;50.872;4.312;2022-09-29T02:22:17;9.00;99.90
22112;DHT22;11222;50.872;4.312;2022-09-29T02:24:43;8.90;99.90
22112;DHT22;11222;50.872;4.312;2022-09-29T02:27:10;8.90;99.90
22112;DHT22;11222;50.872;4.312;2022-09-29T02:29:36;8.90;99.90
22112;DHT22;11222;50.872;4.312;2022-09-29T02:32:03;8.90;99.90
22112;DHT22;11222;50.872;4.312;2022-09-29T02:34:34;8.90;99.90
22112;DHT22;11222;50.872;4.312;2022-09-29T02:37:08;8.90;99.90
22112;DHT22;11222;50.872;4.312;2022-09-29T02:45:38;8.90;99.90
22112;DHT22;11222;50.872;4.312;2022-09-29T02:51:51;8.70;99.90
22112;DHT22;11222;50.872;4.312;2022-09-29T02:57:12;8.70;99.90
22112;DHT22;11222;50.872;4.312;2022-09-29T03:02:34;8.70;99.90
22112;DHT22;11222;50.872;4.312;2022-09-29T03:05:01;8.70;99.90
22112;DHT22;11222;50.872;4.312;2022-09-29T03:07:27;8.80;99.90
22112;DHT22;11222;50.872;4.312;2022-09-29T03:09:53;8.90;99.90
22112;DHT22;11222;50.872;4.312;2022-09-29T03:12:19;8.90;99.90
22112;DHT22;11222;50.872;4.312;2022-09-29T03:14:45;9.00;99.90
22112;DHT22;11222;50.872;4.312;2022-09-29T03:17:10;9.10;99.90
22112;DHT22;11222;50.872;4.312;2022-09-29T03:19:36;9.20;99.90
22112;DHT22;11222;50.872;4.312;2022-09-29T03:22:02;9.40;99.90
22112;DHT22;11222;50.872;4.312;2022-09-29T03:24:28;9.50;99.90
22112;DHT22;11222;50.872;4.312;2022-09-29T03:26:54;9.60;99.90
22112;DHT22;11222;50.872;4.312;2022-09-29T03:29:20;9.60;99.90
22112;DHT22;11222;50.872;4.312;2022-09-29T03:31:45;9.60;99.90
22112;DHT22;11222;50.872;4.312;2022-09-29T03:34:11;9.50;99.90
22112;DHT22;11222;50.872;4.312;2022-09-29T03:36:37;9.40;99.90
22112;DHT22;11222;50.872;4.312;2022-09-29T03:39:02;9.30;99.90
22112;DHT22;11222;50.872;4.312;2022-09-29T03:41:28;9.20;99.90
22112;DHT22;11222;50.872;4.312;2022-09-29T03:43:54;9.20;99.90
22112;DHT22;11222;50.872;4.312;2022-09-29T03:46:19;9.20;99.90
22112;DHT22;11222;50.872;4.312;2022-09-29T03:48:45;9.20;99.90
22112;DHT22;11222;50.872;4.312;2022-09-29T03:51:11;9.20;99.90
22112;DHT22;11222;50.872;4.312;2022-09-29T03:53:36;9.10;99.90
22112;DHT22;11222;50.872;4.312;2022-09-29T03:56:03;9.10;99.90
22112;DHT22;11222;50.872;4.312;2022-09-29T03:58:28;9.10;99.90
22112;DHT22;11222;50.872;4.312;2022-09-29T04:00:54;9.10;99.90
22112;DHT22;11222;50.872;4.312;2022-09-29T04:03:20;9.10;99.90
22112;DHT22;11222;50.872;4.312;2022-09-29T04:05:47;9.20;99.90
22112;DHT22;11222;50.872;4.312;2022-09-29T04:08:13;9.10;99.90
22112;DHT22;11222;50.872;4.312;2022-09-29T04:10:40;9.00;99.90
22112;DHT22;11222;50.872;4.312;2022-09-29T04:13:06;9.00;99.90
22112;DHT22;11222;50.872;4.312;2022-09-29T04:15:33;8.90;99.90
22112;DHT22;11222;50.872;4.312;2022-09-29T04:17:59;9.00;99.90
22112;DHT22;11222;50.872;4.312;2022-09-29T04:20:25;8.90;99.90
22112;DHT22;11222;50.872;4.312;2022-09-29T04:22:51;9.00;99.90
22112;DHT22;11222;50.872;4.312;2022-09-29T04:25:17;9.00;99.90
22112;DHT22;11222;50.872;4.312;2022-09-29T04:27:43;9.00;99.90
22112;DHT22;11222;50.872;4.312;2022-09-29T04:30:09;8.90;99.90
22112;DHT22;11222;50.872;4.312;2022-09-29T04:32:35;8.90;99.90
22112;DHT22;11222;50.872;4.312;2022-09-29T04:35:00;8.80;99.90
22112;DHT22;11222;50.872;4.312;2022-09-29T04:37:26;8.80;99.90
22112;DHT22;11222;50.872;4.312;2022-09-29T04:39:52;8.80;99.90
22112;DHT22;11222;50.872;4.312;2022-09-29T04:42:19;8.80;99.90
22112;DHT22;11222;50.872;4.312;2022-09-29T04:44:45;8.90;99.90
22112;DHT22;11222;50.872;4.312;2022-09-29T04:47:11;8.90;99.90
22112;DHT22;11222;50.872;4.312;2022-09-29T04:49:36;8.90;99.90
22112;DHT22;11222;50.872;4.312;2022-09-29T04:52:03;8.90;99.90
22112;DHT22;11222;50.872;4.312;2022-09-29T04:54:33;8.90;99.90
22112;DHT22;11222;50.872;4.312;2022-09-29T04:56:59;8.80;99.90
22112;DHT22;11222;50.872;4.312;2022-09-29T04:59:26;8.80;99.90
22112;DHT22;11222;50.872;4.312;2022-09-29T05:01:52;8.80;99.90
22112;DHT22;11222;50.872;4.312;2022-09-29T05:04:18;8.70;99.90
22112;DHT22;11222;50.872;4.312;2022-09-29T05:06:44;8.70;99.90
22112;DHT22;11222;50.872;4.312;2022-09-29T05:09:10;8.60;99.90
22112;DHT22;11222;50.872;4.312;2022-09-29T05:11:35;8.60;99.90
22112;DHT22;11222;50.872;4.312;2022-09-29T05:14:01;8.50;99.90
22112;DHT22;11222;50.872;4.312;2022-09-29T05:16:27;8.60;99.90
22112;DHT22;11222;50.872;4.312;2022-09-29T05:18:53;8.70;99.90
22112;DHT22;11222;50.872;4.312;2022-09-29T05:21:19;8.70;99.90
22112;DHT22;11222;50.872;4.312;2022-09-29T05:23:45;8.60;99.90
22112;DHT22;11222;50.872;4.312;2022-09-29T05:26:12;8.60;99.90
22112;DHT22;11222;50.872;4.312;2022-09-29T05:28:41;8.60;99.90
22112;DHT22;11222;50.872;4.312;2022-09-29T05:31:08;8.60;99.90
22112;DHT22;11222;50.872;4.312;2022-09-29T05:33:35;8.60;99.90
22112;DHT22;11222;50.872;4.312;2022-09-29T05:36:04;8.60;99.90
22112;DHT22;11222;50.872;4.312;2022-09-29T05:38:33;8.60;99.90
22112;DHT22;11222;50.872;4.312;2022-09-29T05:41:03;8.70;99.90
22112;DHT22;11222;50.872;4.312;2022-09-29T05:43:29;8.70;99.90
22112;DHT22;11222;50.872;4.312;2022-09-29T05:46:05;8.80;99.90
22112;DHT22;11222;50.872;4.312;2022-09-29T05:48:31;8.80;99.90
22112;DHT22;11222;50.872;4.312;2022-09-29T05:50:58;8.80;99.90
22112;DHT22;11222;50.872;4.312;2022-09-29T05:53:24;8.80;99.90
22112;DHT22;11222;50.872;4.312;2022-09-29T05:55:51;8.80;99.90
22112;DHT22;11222;50.872;4.312;2022-09-29T05:58:17;8.80;99.90
22112;DHT22;11222;50.872;4.312;2022-09-29T06:00:43;8.90;99.90
22112;DHT22;11222;50.872;4.312;2022-09-29T06:03:09;8.90;99.90
22112;DHT22;11222;50.872;4.312;2022-09-29T06:05:38;8.90;99.90
22112;DHT22;11222;50.872;4.312;2022-09-29T06:08:04;8.80;99.90
22112;DHT22;11222;50.872;4.312;2022-09-29T06:10:30;8.80;99.90
22112;DHT22;11222;50.872;4.312;2022-09-29T06:12:56;8.80;99.90
22112;DHT22;11222;50.872;4.312;2022-09-29T06:15:22;8.70;99.90
22112;DHT22;11222;50.872;4.312;2022-09-29T06:17:54;8.70;99.90
22112;DHT22;11222;50.872;4.312;2022-09-29T06:20:21;8.70;99.90
22112;DHT22;11222;50.872;4.312;2022-09-29T06:22:46;8.70;99.90
22112;DHT22;11222;50.872;4.312;2022-09-29T06:25:13;8.80;99.90
22112;DHT22;11222;50.872;4.312;2022-09-29T06:27:39;8.90;99.90
22112;DHT22;11222;50.872;4.312;2022-09-29T06:30:05;8.90;99.90
22112;DHT22;11222;50.872;4.312;2022-09-29T06:32:30;9.00;99.90
22112;DHT22;11222;50.872;4.312;2022-09-29T06:34:58;9.10;99.90
22112;DHT22;11222;50.872;4.312;2022-09-29T06:37:43;9.20;99.90
22112;DHT22;11222;50.872;4.312;2022-09-29T06:40:12;9.30;99.90
22112;DHT22;11222;50.872;4.312;2022-09-29T06:42:38;9.40;99.90
22112;DHT22;11222;50.872;4.312;2022-09-29T06:45:04;9.50;99.90
22112;DHT22;11222;50.872;4.312;2022-09-29T06:47:30;9.50;99.90
22112;DHT22;11222;50.872;4.312;2022-09-29T06:49:55;9.70;99.90
22112;DHT22;11222;50.872;4.312;2022-09-29T06:52:24;9.80;99.90
22112;DHT22;11222;50.872;4.312;2022-09-29T06:54:49;9.90;99.90
22112;DHT22;11222;50.872;4.312;2022-09-29T06:57:15;9.80;99.90
22112;DHT22;11222;50.872;4.312;2022-09-29T06:59:42;9.70;99.90
22112;DHT22;11222;50.872;4.312;2022-09-29T07:02:09;9.60;99.90
22112;DHT22;11222;50.872;4.312;2022-09-29T07:04:35;9.50;99.90
22112;DHT22;11222;50.872;4.312;2022-09-29T07:07:01;9.60;99.90
22112;DHT22;11222;50.872;4.312;2022-09-29T07:09:26;9.70;99.90
22112;DHT22;11222;50.872;4.312;2022-09-29T07:11:52;9.70;99.90
22112;DHT22;11222;50.872;4.312;2022-09-29T07:14:19;9.70;99.90
22112;DHT22;11222;50.872;4.312;2022-09-29T07:16:47;9.80;99.90
22112;DHT22;11222;50.872;4.312;2022-09-29T07:19:13;9.80;99.90
22112;DHT22;11222;50.872;4.312;2022-09-29T07:21:39;9.80;99.90
22112;DHT22;11222;50.872;4.312;2022-09-29T07:24:05;9.90;99.90
22112;DHT22;11222;50.872;4.312;2022-09-29T07:26:31;9.90;99.90
22112;DHT22;11222;50.872;4.312;2022-09-29T07:28:56;10.00;99.90
22112;DHT22;11222;50.872;4.312;2022-09-29T07:31:22;10.00;99.90
22112;DHT22;11222;50.872;4.312;2022-09-29T07:33:49;10.00;99.90
22112;DHT22;11222;50.872;4.312;2022-09-29T07:36:17;10.00;99.90
22112;DHT22;11222;50.872;4.312;2022-09-29T07:38:47;10.10;99.90
22112;DHT22;11222;50.872;4.312;2022-09-29T07:41:13;10.10;99.90
22112;DHT22;11222;50.872;4.312;2022-09-29T07:43:40;10.20;99.90
22112;DHT22;11222;50.872;4.312;2022-09-29T07:46:06;10.20;99.90
22112;DHT22;11222;50.872;4.312;2022-09-29T07:48:33;10.20;99.90
22112;DHT22;11222;50.872;4.312;2022-09-29T07:51:07;10.30;99.90
22112;DHT22;11222;50.872;4.312;2022-09-29T07:53:34;10.40;99.90
22112;DHT22;11222;50.872;4.312;2022-09-29T07:56:09;10.60;99.90
22112;DHT22;11222;50.872;4.312;2022-09-29T07:58:35;10.70;99.90
22112;DHT22;11222;50.872;4.312;2022-09-29T08:01:02;10.70;99.90
22112;DHT22;11222;50.872;4.312;2022-09-29T08:03:31;10.70;99.90
22112;DHT22;11222;50.872;4.312;2022-09-29T08:05:57;10.70;99.90
22112;DHT22;11222;50.872;4.312;2022-09-29T08:08:24;10.70;99.90
22112;DHT22;11222;50.872;4.312;2022-09-29T08:10:49;10.60;99.90
22112;DHT22;11222;50.872;4.312;2022-09-29T08:13:15;10.60;99.90
22112;DHT22;11222;50.872;4.312;2022-09-29T08:15:41;10.50;99.90
22112;DHT22;11222;50.872;4.312;2022-09-29T08:18:07;10.50;99.90
22112;DHT22;11222;50.872;4.312;2022-09-29T08:20:34;10.60;99.90
22112;DHT22;11222;50.872;4.312;2022-09-29T08:23:00;10.60;99.90
22112;DHT22;11222;50.872;4.312;2022-09-29T08:25:26;10.80;99.90
22112;DHT22;11222;50.872;4.312;2022-09-29T08:27:52;10.90;99.90
22112;DHT22;11222;50.872;4.312;2022-09-29T08:30:18;11.00;99.90
22112;DHT22;11222;50.872;4.312;2022-09-29T08:32:53;11.10;99.90
22112;DHT22;11222;50.872;4.312;2022-09-29T08:35:19;11.20;99.90
22112;DHT22;11222;50.872;4.312;2022-09-29T08:37:45;11.20;99.90
22112;DHT22;11222;50.872;4.312;2022-09-29T08:40:11;11.30;99.90
22112;DHT22;11222;50.872;4.312;2022-09-29T08:45:29;11.50;99.90
22112;DHT22;11222;50.872;4.312;2022-09-29T08:48:13;11.60;99.90
22112;DHT22;11222;50.872;4.312;2022-09-29T08:50:45;11.80;99.90
22112;DHT22;11222;50.872;4.312;2022-09-29T08:53:15;11.90;99.90
22112;DHT22;11222;50.872;4.312;2022-09-29T08:55:54;12.00;99.90
22112;DHT22;11222;50.872;4.312;2022-09-29T08:58:21;12.10;99.90
22112;DHT22;11222;50.872;4.312;2022-09-29T09:04:14;12.20;99.90
22112;DHT22;11222;50.872;4.312;2022-09-29T09:12:42;12.50;99.90
22112;DHT22;11222;50.872;4.312;2022-09-29T09:21:09;13.10;99.90
22112;DHT22;11222;50.872;4.312;2022-09-29T09:23:57;13.10;99.90
22112;DHT22;11222;50.872;4.312;2022-09-29T09:26:32;13.40;99.90
22112;DHT22;11222;50.872;4.312;2022-09-29T09:29:09;13.60;99.90
22112;DHT22;11222;50.872;4.312;2022-09-29T09:31:53;13.90;99.90
22112;DHT22;11222;50.872;4.312;2022-09-29T09:36:56;15.30;99.90
22112;DHT22;11222;50.872;4.312;2022-09-29T09:39:34;17.00;99.90
22112;DHT22;11222;50.872;4.312;2022-09-29T09:42:05;18.70;99.90
22112;DHT22;11222;50.872;4.312;2022-09-29T09:44:37;18.10;99.90
22112;DHT22;11222;50.872;4.312;2022-09-29T09:50:17;17.80;99.90
22112;DHT22;11222;50.872;4.312;2022-09-29T09:52:55;18.70;99.90
22112;DHT22;11222;50.872;4.312;2022-09-29T09:55:24;20.30;99.90
22112;DHT22;11222;50.872;4.312;2022-09-29T09:58:29;23.00;99.90
22112;DHT22;11222;50.872;4.312;2022-09-29T10:01:02;23.90;99.20
22112;DHT22;11222;50.872;4.312;2022-09-29T10:03:29;23.70;95.30
22112;DHT22;11222;50.872;4.312;2022-09-29T10:05:56;26.10;94.10
22112;DHT22;11222;50.872;4.312;2022-09-29T10:10:52;26.00;83.70
22112;DHT22;11222;50.872;4.312;2022-09-29T10:13:18;25.00;87.60
22112;DHT22;11222;50.872;4.312;2022-09-29T10:21:21;25.40;87.10
22112;DHT22;11222;50.872;4.312;2022-09-29T10:23:54;25.30;86.10
22112;DHT22;11222;50.872;4.312;2022-09-29T10:26:22;27.20;82.50
22112;DHT22;11222;50.872;4.312;2022-09-29T10:29:03;28.20;78.20
22112;DHT22;11222;50.872;4.312;2022-09-29T10:31:34;28.90;75.30
22112;DHT22;11222;50.872;4.312;2022-09-29T10:34:15;26.20;76.50
22112;DHT22;11222;50.872;4.312;2022-09-29T10:37:21;26.00;78.70
22112;DHT22;11222;50.872;4.312;2022-09-29T10:39:48;24.50;83.40
22112;DHT22;11222;50.872;4.312;2022-09-29T10:42:25;25.50;82.50
22112;DHT22;11222;50.872;4.312;2022-09-29T10:47:38;23.80;84.80
22112;DHT22;11222;50.872;4.312;2022-09-29T10:50:13;22.00;91.50
22112;DHT22;11222;50.872;4.312;2022-09-29T10:52:53;22.10;92.30
22112;DHT22;11222;50.872;4.312;2022-09-29T10:55:25;22.50;93.70
22112;DHT22;11222;50.872;4.312;2022-09-29T10:57:54;23.80;91.30
22112;DHT22;11222;50.872;4.312;2022-09-29T11:00:28;25.20;85.40
22112;DHT22;11222;50.872;4.312;2022-09-29T11:03:25;26.00;79.10
22112;DHT22;11222;50.872;4.312;2022-09-29T11:05:57;26.30;76.60
22112;DHT22;11222;50.872;4.312;2022-09-29T11:08:59;26.80;74.60
22112;DHT22;11222;50.872;4.312;2022-09-29T11:11:31;25.30;77.80
22112;DHT22;11222;50.872;4.312;2022-09-29T11:13:58;23.70;84.20
22112;DHT22;11222;50.872;4.312;2022-09-29T11:16:32;24.20;84.30
22112;DHT22;11222;50.872;4.312;2022-09-29T11:30:09;19.60;99.90
22112;DHT22;11222;50.872;4.312;2022-09-29T11:43:55;19.00;99.90
22112;DHT22;11222;50.872;4.312;2022-09-29T11:46:30;18.50;99.90
22112;DHT22;11222;50.872;4.312;2022-09-29T11:55:03;17.80;99.90
22112;DHT22;11222;50.872;4.312;2022-09-29T11:57:35;17.80;99.90
22112;DHT22;11222;50.872;4.312;2022-09-29T12:00:11;17.90;99.90
22112;DHT22;11222;50.872;4.312;2022-09-29T12:02:54;18.40;99.90
22112;DHT22;11222;50.872;4.312;2022-09-29T12:13:47;18.40;99.90
22112;DHT22;11222;50.872;4.312;2022-09-29T12:16:21;18.80;99.90
22112;DHT22;11222;50.872;4.312;2022-09-29T12:18:57;17.80;99.90
22112;DHT22;11222;50.872;4.312;2022-09-29T12:21:33;17.60;99.90
22112;DHT22;11222;50.872;4.312;2022-09-29T12:24:04;18.10;99.90
22112;DHT22;11222;50.872;4.312;2022-09-29T12:26:32;18.60;99.90
22112;DHT22;11222;50.872;4.312;2022-09-29T12:31:57;18.40;99.90
22112;DHT22;11222;50.872;4.312;2022-09-29T12:34:49;18.60;99.90
22112;DHT22;11222;50.872;4.312;2022-09-29T12:37:38;18.70;99.90
22112;DHT22;11222;50.872;4.312;2022-09-29T12:40:19;18.70;99.90
22112;DHT22;11222;50.872;4.312;2022-09-29T12:45:53;18.50;99.90
22112;DHT22;11222;50.872;4.312;2022-09-29T12:48:38;18.40;99.90
22112;DHT22;11222;50.872;4.312;2022-09-29T12:51:30;18.50;99.90
22112;DHT22;11222;50.872;4.312;2022-09-29T12:57:08;18.20;99.90
22112;DHT22;11222;50.872;4.312;2022-09-29T12:59:56;18.10;99.90
22112;DHT22;11222;50.872;4.312;2022-09-29T13:07:48;18.10;99.90
22112;DHT22;11222;50.872;4.312;2022-09-29T13:18:59;17.90;99.90
22112;DHT22;11222;50.872;4.312;2022-09-29T13:21:35;18.10;99.90
22112;DHT22;11222;50.872;4.312;2022-09-29T13:24:29;18.30;99.90
22112;DHT22;11222;50.872;4.312;2022-09-29T13:27:59;18.10;99.90
22112;DHT22;11222;50.872;4.312;2022-09-29T13:30:19;17.80;99.90
22112;DHT22;11222;50.872;4.312;2022-09-29T13:33:01;17.90;99.90
22112;DHT22;11222;50.872;4.312;2022-09-29T13:35:41;18.00;99.90
22112;DHT22;11222;50.872;4.312;2022-09-29T13:38:22;18.20;99.90
22112;DHT22;11222;50.872;4.312;2022-09-29T13:51:49;17.80;99.90
22112;DHT22;11222;50.872;4.312;2022-09-29T14:05:05;17.50;99.90
22112;DHT22;11222;50.872;4.312;2022-09-29T14:07:46;17.50;99.90
22112;DHT22;11222;50.872;4.312;2022-09-29T14:10:21;17.50;99.90
22112;DHT22;11222;50.872;4.312;2022-09-29T14:13:06;17.50;99.90
22112;DHT22;11222;50.872;4.312;2022-09-29T14:15:42;17.50;99.90
22112;DHT22;11222;50.872;4.312;2022-09-29T14:20:59;17.50;99.90
22112;DHT22;11222;50.872;4.312;2022-09-29T14:23:47;17.30;99.90
22112;DHT22;11222;50.872;4.312;2022-09-29T14:26:41;17.10;99.90
22112;DHT22;11222;50.872;4.312;2022-09-29T14:29:21;17.00;99.90
22112;DHT22;11222;50.872;4.312;2022-09-29T14:31:52;17.00;99.90
22112;DHT22;11222;50.872;4.312;2022-09-29T14:34:20;17.10;99.90
22112;DHT22;11222;50.872;4.312;2022-09-29T14:36:48;17.00;99.90
22112;DHT22;11222;50.872;4.312;2022-09-29T14:39:16;17.00;99.90
22112;DHT22;11222;50.872;4.312;2022-09-29T14:41:44;16.90;99.90
22112;DHT22;11222;50.872;4.312;2022-09-29T14:47:16;17.40;99.90
22112;DHT22;11222;50.872;4.312;2022-09-29T14:50:24;17.60;99.90
22112;DHT22;11222;50.872;4.312;2022-09-29T14:53:33;17.40;99.90
22112;DHT22;11222;50.872;4.312;2022-09-29T15:01:34;17.10;99.90
22112;DHT22;11222;50.872;4.312;2022-09-29T15:04:14;16.90;99.90
22112;DHT22;11222;50.872;4.312;2022-09-29T15:06:48;16.70;99.90
22112;DHT22;11222;50.872;4.312;2022-09-29T15:11:50;16.50;99.90
22112;DHT22;11222;50.872;4.312;2022-09-29T15:27:23;16.70;99.90
22112;DHT22;11222;50.872;4.312;2022-09-29T15:29:53;16.70;99.90
22112;DHT22;11222;50.872;4.312;2022-09-29T15:32:28;16.70;99.90
22112;DHT22;11222;50.872;4.312;2022-09-29T15:35:05;16.70;99.90
22112;DHT22;11222;50.872;4.312;2022-09-29T15:37:56;16.80;99.90
22112;DHT22;11222;50.872;4.312;2022-09-29T15:40:24;16.90;99.90
22112;DHT22;11222;50.872;4.312;2022-09-29T15:42:52;16.60;99.90
22112;DHT22;11222;50.872;4.312;2022-09-29T15:45:26;16.40;99.90
22112;DHT22;11222;50.872;4.312;2022-09-29T15:48:06;16.20;99.90
22112;DHT22;11222;50.872;4.312;2022-09-29T15:50:40;16.00;99.90
22112;DHT22;11222;50.872;4.312;2022-09-29T15:53:07;15.90;99.90
22112;DHT22;11222;50.872;4.312;2022-09-29T15:55:33;15.90;99.90
22112;DHT22;11222;50.872;4.312;2022-09-29T15:57:59;15.90;99.90
22112;DHT22;11222;50.872;4.312;2022-09-29T16:03:11;15.80;99.90
22112;DHT22;11222;50.872;4.312;2022-09-29T16:05:41;16.00;99.90
22112;DHT22;11222;50.872;4.312;2022-09-29T16:08:22;16.10;99.90
22112;DHT22;11222;50.872;4.312;2022-09-29T16:10:51;16.00;99.90
22112;DHT22;11222;50.872;4.312;2022-09-29T16:13:22;16.00;99.90
22112;DHT22;11222;50.872;4.312;2022-09-29T16:15:51;16.00;99.90
22112;DHT22;11222;50.872;4.312;2022-09-29T16:18:43;16.10;99.90
22112;DHT22;11222;50.872;4.312;2022-09-29T16:21:14;16.10;99.90
22112;DHT22;11222;50.872;4.312;2022-09-29T16:24:13;16.10;99.90
22112;DHT22;11222;50.872;4.312;2022-09-29T16:26:43;16.10;99.90
22112;DHT22;11222;50.872;4.312;2022-09-29T16:31:39;16.10;99.90
22112;DHT22;11222;50.872;4.312;2022-09-29T16:39:19;16.30;99.90
22112;DHT22;11222;50.872;4.312;2022-09-29T16:41:51;16.10;99.90
22112;DHT22;11222;50.872;4.312;2022-09-29T16:44:29;16.10;99.90
22112;DHT22;11222;50.872;4.312;2022-09-29T16:49:36;15.90;99.90
22112;DHT22;11222;50.872;4.312;2022-09-29T16:52:24;15.80;99.90
22112;DHT22;11222;50.872;4.312;2022-09-29T16:54:52;15.60;99.90
22112;DHT22;11222;50.872;4.312;2022-09-29T16:57:28;15.50;99.90
22112;DHT22;11222;50.872;4.312;2022-09-29T16:59:57;15.20;99.90
22112;DHT22;11222;50.872;4.312;2022-09-29T17:02:24;15.10;99.90
22112;DHT22;11222;50.872;4.312;2022-09-29T17:04:51;15.10;99.90
22112;DHT22;11222;50.872;4.312;2022-09-29T17:07:20;15.00;99.90
22112;DHT22;11222;50.872;4.312;2022-09-29T17:09:48;15.00;99.90
22112;DHT22;11222;50.872;4.312;2022-09-29T17:12:15;15.00;99.90
22112;DHT22;11222;50.872;4.312;2022-09-29T17:14:42;14.90;99.90
22112;DHT22;11222;50.872;4.312;2022-09-29T17:17:16;14.90;99.90
22112;DHT22;11222;50.872;4.312;2022-09-29T17:19:42;14.90;99.90
22112;DHT22;11222;50.872;4.312;2022-09-29T17:22:31;15.00;99.90
22112;DHT22;11222;50.872;4.312;2022-09-29T17:24:58;15.00;99.90
22112;DHT22;11222;50.872;4.312;2022-09-29T17:27:25;15.10;99.90
22112;DHT22;11222;50.872;4.312;2022-09-29T17:30:12;15.10;99.90
22112;DHT22;11222;50.872;4.312;2022-09-29T17:32:42;15.20;99.90
22112;DHT22;11222;50.872;4.312;2022-09-29T17:35:09;15.20;99.90
22112;DHT22;11222;50.872;4.312;2022-09-29T17:37:37;15.10;99.90
22112;DHT22;11222;50.872;4.312;2022-09-29T17:42:38;15.00;99.90
22112;DHT22;11222;50.872;4.312;2022-09-29T17:45:03;14.90;99.90
22112;DHT22;11222;50.872;4.312;2022-09-29T17:47:29;14.90;99.90
22112;DHT22;11222;50.872;4.312;2022-09-29T17:49:55;14.90;99.90
22112;DHT22;11222;50.872;4.312;2022-09-29T17:52:20;14.90;99.90
22112;DHT22;11222;50.872;4.312;2022-09-29T17:54:46;14.90;99.90
22112;DHT22;11222;50.872;4.312;2022-09-29T17:57:19;14.90;99.90
22112;DHT22;11222;50.872;4.312;2022-09-29T17:59:47;14.90;99.90
22112;DHT22;11222;50.872;4.312;2022-09-29T18:02:13;14.80;99.90
22112;DHT22;11222;50.872;4.312;2022-09-29T18:04:39;14.80;99.90
22112;DHT22;11222;50.872;4.312;2022-09-29T18:07:12;14.80;99.90
22112;DHT22;11222;50.872;4.312;2022-09-29T18:09:39;14.70;99.90
22112;DHT22;11222;50.872;4.312;2022-09-29T18:12:05;14.50;99.90
22112;DHT22;11222;50.872;4.312;2022-09-29T18:14:31;14.40;99.90
22112;DHT22;11222;50.872;4.312;2022-09-29T18:17:00;14.40;99.90
22112;DHT22;11222;50.872;4.312;2022-09-29T18:19:28;14.50;99.90
22112;DHT22;11222;50.872;4.312;2022-09-29T18:21:53;14.50;99.90
22112;DHT22;11222;50.872;4.312;2022-09-29T18:24:21;14.40;99.90
22112;DHT22;11222;50.872;4.312;2022-09-29T18:26:47;14.40;99.90
22112;DHT22;11222;50.872;4.312;2022-09-29T18:29:16;14.40;99.90
22112;DHT22;11222;50.872;4.312;2022-09-29T18:31:44;14.40;99.90
22112;DHT22;11222;50.872;4.312;2022-09-29T18:34:19;14.20;99.90
22112;DHT22;11222;50.872;4.312;2022-09-29T18:36:45;14.10;99.90
22112;DHT22;11222;50.872;4.312;2022-09-29T18:39:14;14.10;99.90
22112;DHT22;11222;50.872;4.312;2022-09-29T18:41:40;14.00;99.90
22112;DHT22;11222;50.872;4.312;2022-09-29T18:44:12;14.10;99.90
22112;DHT22;11222;50.872;4.312;2022-09-29T18:46:38;14.20;99.90
22112;DHT22;11222;50.872;4.312;2022-09-29T18:49:04;14.30;99.90
22112;DHT22;11222;50.872;4.312;2022-09-29T18:51:30;14.30;99.90
22112;DHT22;11222;50.872;4.312;2022-09-29T18:53:56;14.30;99.90
22112;DHT22;11222;50.872;4.312;2022-09-29T18:56:23;14.30;99.90
22112;DHT22;11222;50.872;4.312;2022-09-29T18:58:49;14.20;99.90
22112;DHT22;11222;50.872;4.312;2022-09-29T19:01:22;14.00;99.90
22112;DHT22;11222;50.872;4.312;2022-09-29T19:03:49;14.00;99.90
22112;DHT22;11222;50.872;4.312;2022-09-29T19:06:15;13.90;99.90
22112;DHT22;11222;50.872;4.312;2022-09-29T19:08:41;13.80;99.90
22112;DHT22;11222;50.872;4.312;2022-09-29T19:11:16;13.90;99.90
22112;DHT22;11222;50.872;4.312;2022-09-29T19:13:42;13.70;99.90
22112;DHT22;11222;50.872;4.312;2022-09-29T19:16:08;13.60;99.90
22112;DHT22;11222;50.872;4.312;2022-09-29T19:18:34;13.60;99.90